sensor_id;sensor_type;location;lat;lon;timestamp;temperature;humidity
23305;DHT22;11821;51.456;8.844;2023-05-24T06:48:41;11.40;99.90
23305;DHT22;11821;51.456;8.844;2023-05-24T06:51:07;13.90;99.90
23305;DHT22;11821;51.456;8.844;2023-05-24T06:53:33;13.70;99.90
23305;DHT22;11821;51.456;8.844;2023-05-24T06:56:00;13.70;99.90
23305;DHT22;11821;51.456;8.844;2023-05-24T06:58:26;13.70;99.90
23305;DHT22;11821;51.456;8.844;2023-05-24T07:15:32;13.90;99.90
23305;DHT22;11821;51.456;8.844;2023-05-24T07:20:25;15.00;99.90
23305;DHT22;11821;51.456;8.844;2023-05-24T07:22:51;15.10;99.90
23305;DHT22;11821;51.456;8.844;2023-05-24T07:25:18;15.20;99.90
23305;DHT22;11821;51.456;8.844;2023-05-24T07:27:44;15.00;99.90
23305;DHT22;11821;51.456;8.844;2023-05-24T07:30:10;14.90;99.90
23305;DHT22;11821;51.456;8.844;2023-05-24T07:32:37;14.60;99.90
23305;DHT22;11821;51.456;8.844;2023-05-24T07:35:03;14.60;99.90
23305;DHT22;11821;51.456;8.844;2023-05-24T07:37:30;14.60;99.90
23305;DHT22;11821;51.456;8.844;2023-05-24T07:39:56;14.60;99.90
23305;DHT22;11821;51.456;8.844;2023-05-24T07:42:23;14.50;99.90
23305;DHT22;11821;51.456;8.844;2023-05-24T07:44:49;14.40;99.90
23305;DHT22;11821;51.456;8.844;2023-05-24T07:47:16;14.40;99.90
23305;DHT22;11821;51.456;8.844;2023-05-24T07:49:42;14.50;99.90
23305;DHT22;11821;51.456;8.844;2023-05-24T07:52:08;14.70;99.90
23305;DHT22;11821;51.456;8.844;2023-05-24T07:54:34;14.60;99.90
23305;DHT22;11821;51.456;8.844;2023-05-24T07:57:01;14.60;99.90
23305;DHT22;11821;51.456;8.844;2023-05-24T07:59:27;14.70;99.90
23305;DHT22;11821;51.456;8.844;2023-05-24T08:01:54;14.80;99.90
23305;DHT22;11821;51.456;8.844;2023-05-24T08:04:26;14.90;99.90
23305;DHT22;11821;51.456;8.844;2023-05-24T08:06:52;15.10;99.90
23305;DHT22;11821;51.456;8.844;2023-05-24T08:09:19;15.00;99.90
23305;DHT22;11821;51.456;8.844;2023-05-24T08:11:45;14.90;99.90
23305;DHT22;11821;51.456;8.844;2023-05-24T08:14:11;14.70;99.90
23305;DHT22;11821;51.456;8.844;2023-05-24T08:16:38;14.90;99.90
23305;DHT22;11821;51.456;8.844;2023-05-24T08:19:04;15.00;99.90
23305;DHT22;11821;51.456;8.844;2023-05-24T08:21:30;15.00;99.90
23305;DHT22;11821;51.456;8.844;2023-05-24T08:23:56;15.10;99.90
23305;DHT22;11821;51.456;8.844;2023-05-24T08:26:23;15.20;99.90
23305;DHT22;11821;51.456;8.844;2023-05-24T08:28:49;15.20;99.90
23305;DHT22;11821;51.456;8.844;2023-05-24T08:31:15;15.00;99.90
23305;DHT22;11821;51.456;8.844;2023-05-24T08:33:43;15.00;99.90
23305;DHT22;11821;51.456;8.844;2023-05-24T08:36:09;15.00;99.90
23305;DHT22;11821;51.456;8.844;2023-05-24T08:38:35;14.90;99.90
23305;DHT22;11821;51.456;8.844;2023-05-24T08:41:04;14.70;99.90
23305;DHT22;11821;51.456;8.844;2023-05-24T08:43:32;14.50;99.90
23305;DHT22;11821;51.456;8.844;2023-05-24T08:46:00;14.70;99.90
23305;DHT22;11821;51.456;8.844;2023-05-24T08:48:28;14.80;99.90
23305;DHT22;11821;51.456;8.844;2023-05-24T08:50:54;15.00;99.90
23305;DHT22;11821;51.456;8.844;2023-05-24T08:53:23;15.20;99.90
23305;DHT22;11821;51.456;8.844;2023-05-24T08:55:49;15.40;99.90
23305;DHT22;11821;51.456;8.844;2023-05-24T08:58:18;15.40;99.90
23305;DHT22;11821;51.456;8.844;2023-05-24T09:00:45;15.60;99.90
23305;DHT22;11821;51.456;8.844;2023-05-24T09:03:12;15.60;99.90
23305;DHT22;11821;51.456;8.844;2023-05-24T09:05:40;15.70;99.90
23305;DHT22;11821;51.456;8.844;2023-05-24T09:08:07;15.60;99.90
23305;DHT22;11821;51.456;8.844;2023-05-24T09:10:35;15.60;99.90
23305;DHT22;11821;51.456;8.844;2023-05-24T09:13:02;15.80;99.90
23305;DHT22;11821;51.456;8.844;2023-05-24T09:15:30;16.10;99.90
23305;DHT22;11821;51.456;8.844;2023-05-24T09:17:57;16.50;99.90
23305;DHT22;11821;51.456;8.844;2023-05-24T09:20:23;16.80;99.90
23305;DHT22;11821;51.456;8.844;2023-05-24T09:22:51;16.50;99.90
23305;DHT22;11821;51.456;8.844;2023-05-24T09:25:19;16.40;99.90
23305;DHT22;11821;51.456;8.844;2023-05-24T09:27:50;16.40;99.90
23305;DHT22;11821;51.456;8.844;2023-05-24T09:30:17;16.20;99.90
23305;DHT22;11821;51.456;8.844;2023-05-24T09:32:54;16.20;99.90
23305;DHT22;11821;51.456;8.844;2023-05-24T09:35:22;16.40;99.90
23305;DHT22;11821;51.456;8.844;2023-05-24T09:37:48;16.40;99.90
23305;DHT22;11821;51.456;8.844;2023-05-24T09:40:18;17.00;99.90
23305;DHT22;11821;51.456;8.844;2023-05-24T09:42:45;17.40;99.90
23305;DHT22;11821;51.456;8.844;2023-05-24T09:45:11;17.60;99.90
23305;DHT22;11821;51.456;8.844;2023-05-24T09:47:39;17.50;99.90
23305;DHT22;11821;51.456;8.844;2023-05-24T09:50:12;17.30;99.90
23305;DHT22;11821;51.456;8.844;2023-05-24T09:52:38;17.40;99.90
23305;DHT22;11821;51.456;8.844;2023-05-24T09:55:15;17.90;99.90
23305;DHT22;11821;51.456;8.844;2023-05-24T09:57:50;17.90;99.90
23305;DHT22;11821;51.456;8.844;2023-05-24T10:00:23;18.40;99.90
23305;DHT22;11821;51.456;8.844;2023-05-24T10:03:04;18.60;99.90
23305;DHT22;11821;51.456;8.844;2023-05-24T10:05:34;19.10;99.90
23305;DHT22;11821;51.456;8.844;2023-05-24T10:08:01;19.30;99.90
23305;DHT22;11821;51.456;8.844;2023-05-24T10:10:32;19.00;99.60
23305;DHT22;11821;51.456;8.844;2023-05-24T10:12:59;18.90;99.90
23305;DHT22;11821;51.456;8.844;2023-05-24T10:15:26;18.60;99.90
23305;DHT22;11821;51.456;8.844;2023-05-24T10:17:56;18.30;99.90
23305;DHT22;11821;51.456;8.844;2023-05-24T10:20:23;18.30;99.90
23305;DHT22;11821;51.456;8.844;2023-05-24T10:22:53;18.20;99.90
23305;DHT22;11821;51.456;8.844;2023-05-24T10:25:22;18.00;99.90
23305;DHT22;11821;51.456;8.844;2023-05-24T10:27:56;17.60;99.90
23305;DHT22;11821;51.456;8.844;2023-05-24T10:30:43;17.40;99.90
23305;DHT22;11821;51.456;8.844;2023-05-24T10:33:13;17.50;99.90
23305;DHT22;11821;51.456;8.844;2023-05-24T10:35:40;17.80;99.90
23305;DHT22;11821;51.456;8.844;2023-05-24T10:38:08;17.90;99.90
23305;DHT22;11821;51.456;8.844;2023-05-24T10:40:34;17.50;99.90
23305;DHT22;11821;51.456;8.844;2023-05-24T10:43:06;17.60;99.90
23305;DHT22;11821;51.456;8.844;2023-05-24T10:45:39;17.50;99.90
23305;DHT22;11821;51.456;8.844;2023-05-24T10:50:55;17.50;99.90
23305;DHT22;11821;51.456;8.844;2023-05-24T10:53:23;17.20;99.90
23305;DHT22;11821;51.456;8.844;2023-05-24T10:58:44;17.20;99.90
23305;DHT22;11821;51.456;8.844;2023-05-24T11:01:26;17.00;99.90
23305;DHT22;11821;51.456;8.844;2023-05-24T11:04:08;17.20;99.90
23305;DHT22;11821;51.456;8.844;2023-05-24T11:06:48;17.30;99.90
23305;DHT22;11821;51.456;8.844;2023-05-24T11:09:16;17.20;99.90
23305;DHT22;11821;51.456;8.844;2023-05-24T11:11:46;17.40;99.90
23305;DHT22;11821;51.456;8.844;2023-05-24T11:14:17;17.30;99.90
23305;DHT22;11821;51.456;8.844;2023-05-24T11:16:45;17.00;99.90
23305;DHT22;11821;51.456;8.844;2023-05-24T11:19:27;17.10;99.90
23305;DHT22;11821;51.456;8.844;2023-05-24T11:21:56;17.30;99.90
23305;DHT22;11821;51.456;8.844;2023-05-24T11:24:26;17.50;99.90
23305;DHT22;11821;51.456;8.844;2023-05-24T11:26:53;17.30;99.90
23305;DHT22;11821;51.456;8.844;2023-05-24T11:29:19;17.20;99.90
23305;DHT22;11821;51.456;8.844;2023-05-24T11:31:51;17.30;99.90
23305;DHT22;11821;51.456;8.844;2023-05-24T11:34:22;17.20;99.90
23305;DHT22;11821;51.456;8.844;2023-05-24T11:36:49;17.10;99.90
23305;DHT22;11821;51.456;8.844;2023-05-24T11:39:18;17.30;99.90
23305;DHT22;11821;51.456;8.844;2023-05-24T11:41:44;17.30;99.90
23305;DHT22;11821;51.456;8.844;2023-05-24T11:44:16;17.30;99.90
23305;DHT22;11821;51.456;8.844;2023-05-24T11:46:44;17.20;99.90
23305;DHT22;11821;51.456;8.844;2023-05-24T11:49:14;17.60;99.90
23305;DHT22;11821;51.456;8.844;2023-05-24T11:51:41;17.60;99.90
23305;DHT22;11821;51.456;8.844;2023-05-24T11:54:08;17.50;99.90
23305;DHT22;11821;51.456;8.844;2023-05-24T11:56:36;17.90;99.90
23305;DHT22;11821;51.456;8.844;2023-05-24T11:59:13;17.90;99.90
23305;DHT22;11821;51.456;8.844;2023-05-24T12:01:40;17.80;99.90
23305;DHT22;11821;51.456;8.844;2023-05-24T12:04:07;18.10;99.90
23305;DHT22;11821;51.456;8.844;2023-05-24T12:06:42;18.20;99.90
23305;DHT22;11821;51.456;8.844;2023-05-24T12:09:11;18.10;99.90
23305;DHT22;11821;51.456;8.844;2023-05-24T12:11:42;18.00;99.90
23305;DHT22;11821;51.456;8.844;2023-05-24T12:14:13;18.00;99.90
23305;DHT22;11821;51.456;8.844;2023-05-24T12:16:41;18.20;99.90
23305;DHT22;11821;51.456;8.844;2023-05-24T12:19:11;18.40;99.90
23305;DHT22;11821;51.456;8.844;2023-05-24T12:21:40;18.30;99.90
23305;DHT22;11821;51.456;8.844;2023-05-24T12:24:25;18.10;99.90
23305;DHT22;11821;51.456;8.844;2023-05-24T12:27:00;17.90;99.90
23305;DHT22;11821;51.456;8.844;2023-05-24T12:29:34;18.20;99.90
23305;DHT22;11821;51.456;8.844;2023-05-24T12:32:01;18.30;99.90
23305;DHT22;11821;51.456;8.844;2023-05-24T12:34:28;18.40;99.90
23305;DHT22;11821;51.456;8.844;2023-05-24T12:36:55;18.30;99.90
23305;DHT22;11821;51.456;8.844;2023-05-24T12:39:23;18.30;99.90
23305;DHT22;11821;51.456;8.844;2023-05-24T12:41:57;18.40;99.90
23305;DHT22;11821;51.456;8.844;2023-05-24T12:44:24;18.50;99.90
23305;DHT22;11821;51.456;8.844;2023-05-24T12:46:55;18.70;99.90
23305;DHT22;11821;51.456;8.844;2023-05-24T12:49:22;18.70;99.90
23305;DHT22;11821;51.456;8.844;2023-05-24T12:51:49;18.70;99.90
23305;DHT22;11821;51.456;8.844;2023-05-24T12:54:20;19.00;99.90
23305;DHT22;11821;51.456;8.844;2023-05-24T12:56:47;19.50;99.90
23305;DHT22;11821;51.456;8.844;2023-05-24T12:59:13;19.30;99.90
23305;DHT22;11821;51.456;8.844;2023-05-24T13:01:40;19.30;99.90
23305;DHT22;11821;51.456;8.844;2023-05-24T13:04:08;19.40;99.90
23305;DHT22;11821;51.456;8.844;2023-05-24T13:06:36;19.20;99.90
23305;DHT22;11821;51.456;8.844;2023-05-24T13:09:03;18.90;99.90
23305;DHT22;11821;51.456;8.844;2023-05-24T13:11:29;18.80;99.90
23305;DHT22;11821;51.456;8.844;2023-05-24T13:13:56;18.60;99.90
23305;DHT22;11821;51.456;8.844;2023-05-24T13:16:24;18.80;99.90
23305;DHT22;11821;51.456;8.844;2023-05-24T13:18:51;18.90;99.90
23305;DHT22;11821;51.456;8.844;2023-05-24T13:21:17;19.00;99.90
23305;DHT22;11821;51.456;8.844;2023-05-24T13:23:44;19.20;99.90
23305;DHT22;11821;51.456;8.844;2023-05-24T13:26:10;19.50;99.90
23305;DHT22;11821;51.456;8.844;2023-05-24T13:28:38;19.50;99.90
23305;DHT22;11821;51.456;8.844;2023-05-24T13:31:04;19.80;99.90
23305;DHT22;11821;51.456;8.844;2023-05-24T13:33:31;20.00;99.90
23305;DHT22;11821;51.456;8.844;2023-05-24T13:35:57;20.20;99.90
23305;DHT22;11821;51.456;8.844;2023-05-24T13:38:24;19.90;99.90
23305;DHT22;11821;51.456;8.844;2023-05-24T13:40:51;19.90;99.90
23305;DHT22;11821;51.456;8.844;2023-05-24T13:43:18;19.80;99.90
23305;DHT22;11821;51.456;8.844;2023-05-24T13:45:45;19.80;99.90
23305;DHT22;11821;51.456;8.844;2023-05-24T13:48:11;20.20;99.90
23305;DHT22;11821;51.456;8.844;2023-05-24T13:50:38;20.80;99.90
23305;DHT22;11821;51.456;8.844;2023-05-24T13:53:04;21.00;99.90
23305;DHT22;11821;51.456;8.844;2023-05-24T13:55:33;20.80;99.90
23305;DHT22;11821;51.456;8.844;2023-05-24T13:58:00;21.10;99.90
23305;DHT22;11821;51.456;8.844;2023-05-24T14:00:27;21.00;99.90
23305;DHT22;11821;51.456;8.844;2023-05-24T14:02:53;20.80;99.90
23305;DHT22;11821;51.456;8.844;2023-05-24T14:05:20;20.60;99.90
23305;DHT22;11821;51.456;8.844;2023-05-24T14:07:48;20.60;99.90
23305;DHT22;11821;51.456;8.844;2023-05-24T14:10:14;20.50;99.90
23305;DHT22;11821;51.456;8.844;2023-05-24T14:12:41;20.90;99.90
23305;DHT22;11821;51.456;8.844;2023-05-24T14:15:07;20.60;99.90
23305;DHT22;11821;51.456;8.844;2023-05-24T14:17:34;21.00;99.90
23305;DHT22;11821;51.456;8.844;2023-05-24T14:20:00;20.90;99.90
23305;DHT22;11821;51.456;8.844;2023-05-24T14:22:26;20.90;99.90
23305;DHT22;11821;51.456;8.844;2023-05-24T14:24:54;21.10;99.90
23305;DHT22;11821;51.456;8.844;2023-05-24T14:27:20;20.90;99.90
23305;DHT22;11821;51.456;8.844;2023-05-24T14:29:47;20.80;99.90
23305;DHT22;11821;51.456;8.844;2023-05-24T14:32:13;20.70;99.90
23305;DHT22;11821;51.456;8.844;2023-05-24T14:34:42;20.80;99.90
23305;DHT22;11821;51.456;8.844;2023-05-24T14:37:08;20.50;99.90
23305;DHT22;11821;51.456;8.844;2023-05-24T14:39:34;20.50;99.90
23305;DHT22;11821;51.456;8.844;2023-05-24T14:42:00;20.40;99.90
23305;DHT22;11821;51.456;8.844;2023-05-24T14:44:27;20.60;99.90
23305;DHT22;11821;51.456;8.844;2023-05-24T14:46:53;20.30;99.90
23305;DHT22;11821;51.456;8.844;2023-05-24T14:49:20;20.60;99.90
23305;DHT22;11821;51.456;8.844;2023-05-24T14:51:46;20.30;99.90
23305;DHT22;11821;51.456;8.844;2023-05-24T14:54:15;20.20;99.90
23305;DHT22;11821;51.456;8.844;2023-05-24T14:56:42;19.80;99.90
23305;DHT22;11821;51.456;8.844;2023-05-24T14:59:08;19.90;99.90
23305;DHT22;11821;51.456;8.844;2023-05-24T15:01:34;19.90;99.90
23305;DHT22;11821;51.456;8.844;2023-05-24T15:04:01;19.50;99.90
23305;DHT22;11821;51.456;8.844;2023-05-24T15:06:28;19.80;99.90
23305;DHT22;11821;51.456;8.844;2023-05-24T15:09:03;19.90;99.90
23305;DHT22;11821;51.456;8.844;2023-05-24T15:11:31;20.20;99.90
23305;DHT22;11821;51.456;8.844;2023-05-24T15:13:58;20.00;99.90
23305;DHT22;11821;51.456;8.844;2023-05-24T15:16:25;19.70;99.90
23305;DHT22;11821;51.456;8.844;2023-05-24T15:18:52;19.30;99.90
23305;DHT22;11821;51.456;8.844;2023-05-24T15:21:19;18.90;99.90
23305;DHT22;11821;51.456;8.844;2023-05-24T15:23:46;18.90;99.90
23305;DHT22;11821;51.456;8.844;2023-05-24T15:26:12;18.70;99.90
23305;DHT22;11821;51.456;8.844;2023-05-24T15:28:38;18.70;99.90
23305;DHT22;11821;51.456;8.844;2023-05-24T15:31:05;19.10;99.90
23305;DHT22;11821;51.456;8.844;2023-05-24T15:33:32;19.30;99.90
23305;DHT22;11821;51.456;8.844;2023-05-24T15:35:58;19.00;99.90
23305;DHT22;11821;51.456;8.844;2023-05-24T15:38:24;18.90;99.90
23305;DHT22;11821;51.456;8.844;2023-05-24T15:40:51;18.90;99.90
23305;DHT22;11821;51.456;8.844;2023-05-24T15:43:18;19.00;99.90
23305;DHT22;11821;51.456;8.844;2023-05-24T15:45:45;19.00;99.90
23305;DHT22;11821;51.456;8.844;2023-05-24T15:48:11;18.80;99.90
23305;DHT22;11821;51.456;8.844;2023-05-24T15:50:38;19.10;99.90
23305;DHT22;11821;51.456;8.844;2023-05-24T15:53:04;19.30;99.90
23305;DHT22;11821;51.456;8.844;2023-05-24T15:55:31;19.50;99.90
23305;DHT22;11821;51.456;8.844;2023-05-24T15:57:58;19.00;99.90
23305;DHT22;11821;51.456;8.844;2023-05-24T16:00:25;18.90;99.90
23305;DHT22;11821;51.456;8.844;2023-05-24T16:02:51;18.90;99.90
23305;DHT22;11821;51.456;8.844;2023-05-24T16:05:18;19.10;99.90
23305;DHT22;11821;51.456;8.844;2023-05-24T16:07:45;19.30;99.90
23305;DHT22;11821;51.456;8.844;2023-05-24T16:10:11;19.50;99.90
23305;DHT22;11821;51.456;8.844;2023-05-24T16:12:38;19.30;99.90
23305;DHT22;11821;51.456;8.844;2023-05-24T16:15:05;19.20;99.90
23305;DHT22;11821;51.456;8.844;2023-05-24T16:17:31;19.20;99.90
23305;DHT22;11821;51.456;8.844;2023-05-24T16:19:57;19.00;99.90
23305;DHT22;11821;51.456;8.844;2023-05-24T16:22:24;19.10;99.90
23305;DHT22;11821;51.456;8.844;2023-05-24T16:24:50;18.80;99.90
23305;DHT22;11821;51.456;8.844;2023-05-24T16:27:18;18.80;99.90
23305;DHT22;11821;51.456;8.844;2023-05-24T16:29:44;18.70;99.90
23305;DHT22;11821;51.456;8.844;2023-05-24T16:32:12;18.80;99.90
23305;DHT22;11821;51.456;8.844;2023-05-24T16:34:42;18.70;99.90
23305;DHT22;11821;51.456;8.844;2023-05-24T16:37:08;18.90;99.90
23305;DHT22;11821;51.456;8.844;2023-05-24T16:39:34;18.80;99.90
23305;DHT22;11821;51.456;8.844;2023-05-24T16:42:05;18.80;99.90
23305;DHT22;11821;51.456;8.844;2023-05-24T16:44:32;18.80;99.90
23305;DHT22;11821;51.456;8.844;2023-05-24T16:46:58;18.80;99.90
23305;DHT22;11821;51.456;8.844;2023-05-24T16:49:24;18.60;99.90
23305;DHT22;11821;51.456;8.844;2023-05-24T16:51:51;18.40;99.90
23305;DHT22;11821;51.456;8.844;2023-05-24T16:54:17;18.60;99.90
23305;DHT22;11821;51.456;8.844;2023-05-24T16:56:43;18.60;99.90
23305;DHT22;11821;51.456;8.844;2023-05-24T16:59:11;18.30;99.90
23305;DHT22;11821;51.456;8.844;2023-05-24T17:01:37;18.20;99.90
23305;DHT22;11821;51.456;8.844;2023-05-24T17:04:04;18.10;99.90
23305;DHT22;11821;51.456;8.844;2023-05-24T17:06:30;17.80;99.90
23305;DHT22;11821;51.456;8.844;2023-05-24T17:08:57;17.70;99.90
23305;DHT22;11821;51.456;8.844;2023-05-24T17:11:23;17.70;99.90
23305;DHT22;11821;51.456;8.844;2023-05-24T17:13:50;17.70;99.90
23305;DHT22;11821;51.456;8.844;2023-05-24T17:16:16;17.80;99.90
23305;DHT22;11821;51.456;8.844;2023-05-24T17:18:43;17.80;99.90
23305;DHT22;11821;51.456;8.844;2023-05-24T17:21:09;17.80;99.90
23305;DHT22;11821;51.456;8.844;2023-05-24T17:23:36;17.60;99.90
23305;DHT22;11821;51.456;8.844;2023-05-24T17:26:03;17.50;99.90
23305;DHT22;11821;51.456;8.844;2023-05-24T17:28:33;17.50;99.90
23305;DHT22;11821;51.456;8.844;2023-05-24T17:31:00;17.40;99.90
23305;DHT22;11821;51.456;8.844;2023-05-24T17:33:28;17.20;99.90
23305;DHT22;11821;51.456;8.844;2023-05-24T17:35:55;17.20;99.90
23305;DHT22;11821;51.456;8.844;2023-05-24T17:38:22;17.20;99.90
23305;DHT22;11821;51.456;8.844;2023-05-24T17:40:54;17.10;99.90
23305;DHT22;11821;51.456;8.844;2023-05-24T17:43:25;17.30;99.90
23305;DHT22;11821;51.456;8.844;2023-05-24T17:45:55;17.20;99.90
23305;DHT22;11821;51.456;8.844;2023-05-24T17:48:32;17.20;99.90
23305;DHT22;11821;51.456;8.844;2023-05-24T17:50:59;17.20;99.90
23305;DHT22;11821;51.456;8.844;2023-05-24T17:53:27;17.30;99.90
23305;DHT22;11821;51.456;8.844;2023-05-24T17:55:56;17.30;99.90
23305;DHT22;11821;51.456;8.844;2023-05-24T17:58:22;17.30;99.90
23305;DHT22;11821;51.456;8.844;2023-05-24T18:00:49;17.30;99.90
23305;DHT22;11821;51.456;8.844;2023-05-24T18:03:15;17.30;99.90
23305;DHT22;11821;51.456;8.844;2023-05-24T18:05:41;17.00;99.90
23305;DHT22;11821;51.456;8.844;2023-05-24T18:08:07;17.00;99.90
23305;DHT22;11821;51.456;8.844;2023-05-24T18:10:34;17.10;99.90
23305;DHT22;11821;51.456;8.844;2023-05-24T18:13:00;17.10;99.90
23305;DHT22;11821;51.456;8.844;2023-05-24T18:15:27;17.10;99.90
23305;DHT22;11821;51.456;8.844;2023-05-24T18:17:54;17.00;99.90
23305;DHT22;11821;51.456;8.844;2023-05-24T18:20:21;17.00;99.90
23305;DHT22;11821;51.456;8.844;2023-05-24T18:22:47;17.00;99.90
23305;DHT22;11821;51.456;8.844;2023-05-24T18:25:13;17.00;99.90
23305;DHT22;11821;51.456;8.844;2023-05-24T18:27:39;17.00;99.90
23305;DHT22;11821;51.456;8.844;2023-05-24T18:30:06;17.00;99.90
23305;DHT22;11821;51.456;8.844;2023-05-24T18:32:33;16.90;99.90
23305;DHT22;11821;51.456;8.844;2023-05-24T18:34:59;16.90;99.90
23305;DHT22;11821;51.456;8.844;2023-05-24T18:37:25;16.70;99.90
23305;DHT22;11821;51.456;8.844;2023-05-24T18:39:51;16.70;99.90
23305;DHT22;11821;51.456;8.844;2023-05-24T18:42:18;16.70;99.90
23305;DHT22;11821;51.456;8.844;2023-05-24T18:44:44;16.60;99.90
23305;DHT22;11821;51.456;8.844;2023-05-24T18:47:11;16.50;99.90
23305;DHT22;11821;51.456;8.844;2023-05-24T18:49:39;16.40;99.90
23305;DHT22;11821;51.456;8.844;2023-05-24T18:52:05;16.40;99.90
23305;DHT22;11821;51.456;8.844;2023-05-24T18:54:31;16.40;99.90
23305;DHT22;11821;51.456;8.844;2023-05-24T18:56:58;16.40;99.90
23305;DHT22;11821;51.456;8.844;2023-05-24T18:59:29;16.30;99.90
23305;DHT22;11821;51.456;8.844;2023-05-24T19:01:57;16.20;99.90
23305;DHT22;11821;51.456;8.844;2023-05-24T19:04:26;16.10;99.90
23305;DHT22;11821;51.456;8.844;2023-05-24T19:06:52;16.10;99.90
23305;DHT22;11821;51.456;8.844;2023-05-24T19:09:18;16.00;99.90
23305;DHT22;11821;51.456;8.844;2023-05-24T19:11:45;16.00;99.90
23305;DHT22;11821;51.456;8.844;2023-05-24T19:14:11;16.00;99.90
23305;DHT22;11821;51.456;8.844;2023-05-24T19:16:39;16.00;99.90
23305;DHT22;11821;51.456;8.844;2023-05-24T19:19:05;15.80;99.90
23305;DHT22;11821;51.456;8.844;2023-05-24T19:21:31;15.70;99.90
23305;DHT22;11821;51.456;8.844;2023-05-24T19:23:58;15.60;99.90
23305;DHT22;11821;51.456;8.844;2023-05-24T19:26:24;15.50;99.90
23305;DHT22;11821;51.456;8.844;2023-05-24T19:28:51;15.40;99.90
23305;DHT22;11821;51.456;8.844;2023-05-24T19:31:21;15.30;99.90
23305;DHT22;11821;51.456;8.844;2023-05-24T19:33:48;15.20;99.90
23305;DHT22;11821;51.456;8.844;2023-05-24T19:36:15;15.10;99.90
23305;DHT22;11821;51.456;8.844;2023-05-24T19:38:42;15.00;99.90
23305;DHT22;11821;51.456;8.844;2023-05-24T19:41:08;15.00;99.90
23305;DHT22;11821;51.456;8.844;2023-05-24T19:43:35;15.00;99.90
23305;DHT22;11821;51.456;8.844;2023-05-24T19:46:01;14.90;99.90
23305;DHT22;11821;51.456;8.844;2023-05-24T19:48:30;14.90;99.90
23305;DHT22;11821;51.456;8.844;2023-05-24T19:50:57;14.90;99.90
23305;DHT22;11821;51.456;8.844;2023-05-24T19:53:23;14.80;99.90
23305;DHT22;11821;51.456;8.844;2023-05-24T19:55:49;14.70;99.90
23305;DHT22;11821;51.456;8.844;2023-05-24T19:58:16;14.60;99.90
23305;DHT22;11821;51.456;8.844;2023-05-24T20:00:42;14.50;99.90
23305;DHT22;11821;51.456;8.844;2023-05-24T20:03:09;14.50;99.90
23305;DHT22;11821;51.456;8.844;2023-05-24T20:05:36;14.40;99.90
23305;DHT22;11821;51.456;8.844;2023-05-24T20:08:02;14.30;99.90
23305;DHT22;11821;51.456;8.844;2023-05-24T20:10:29;14.20;99.90
23305;DHT22;11821;51.456;8.844;2023-05-24T20:12:57;14.20;99.90
23305;DHT22;11821;51.456;8.844;2023-05-24T20:15:27;14.20;99.90
23305;DHT22;11821;51.456;8.844;2023-05-24T20:17:53;14.10;99.90
23305;DHT22;11821;51.456;8.844;2023-05-24T20:20:19;14.10;99.90
23305;DHT22;11821;51.456;8.844;2023-05-24T20:22:46;14.00;99.90
23305;DHT22;11821;51.456;8.844;2023-05-24T20:25:12;13.90;99.90
23305;DHT22;11821;51.456;8.844;2023-05-24T20:27:40;13.90;99.90
23305;DHT22;11821;51.456;8.844;2023-05-24T20:30:07;13.90;99.90
23305;DHT22;11821;51.456;8.844;2023-05-24T20:32:34;13.80;99.90
23305;DHT22;11821;51.456;8.844;2023-05-24T20:35:01;13.80;99.90
23305;DHT22;11821;51.456;8.844;2023-05-24T20:37:28;13.60;99.90
23305;DHT22;11821;51.456;8.844;2023-05-24T20:39:54;13.60;99.90
23305;DHT22;11821;51.456;8.844;2023-05-24T20:42:20;13.50;99.90
23305;DHT22;11821;51.456;8.844;2023-05-24T20:44:47;13.50;99.90
23305;DHT22;11821;51.456;8.844;2023-05-24T20:47:13;13.40;99.90
23305;DHT22;11821;51.456;8.844;2023-05-24T20:49:41;13.30;99.90
23305;DHT22;11821;51.456;8.844;2023-05-24T20:52:08;13.20;99.90
23305;DHT22;11821;51.456;8.844;2023-05-24T20:54:34;13.30;99.90
23305;DHT22;11821;51.456;8.844;2023-05-24T20:57:01;13.30;99.90
23305;DHT22;11821;51.456;8.844;2023-05-24T20:59:27;13.20;99.90
23305;DHT22;11821;51.456;8.844;2023-05-24T21:01:55;13.20;99.90
23305;DHT22;11821;51.456;8.844;2023-05-24T21:04:21;13.10;99.90
23305;DHT22;11821;51.456;8.844;2023-05-24T21:06:47;13.10;99.90
23305;DHT22;11821;51.456;8.844;2023-05-24T21:09:14;13.00;99.90
23305;DHT22;11821;51.456;8.844;2023-05-24T21:11:40;12.90;99.90
23305;DHT22;11821;51.456;8.844;2023-05-24T21:14:06;12.90;99.90
23305;DHT22;11821;51.456;8.844;2023-05-24T21:16:33;12.90;99.90
23305;DHT22;11821;51.456;8.844;2023-05-24T21:18:59;12.80;99.90
23305;DHT22;11821;51.456;8.844;2023-05-24T21:21:25;12.80;99.90
23305;DHT22;11821;51.456;8.844;2023-05-24T21:23:52;12.80;99.90
23305;DHT22;11821;51.456;8.844;2023-05-24T21:26:18;12.70;99.90
23305;DHT22;11821;51.456;8.844;2023-05-24T21:28:44;12.60;99.90
23305;DHT22;11821;51.456;8.844;2023-05-24T21:31:11;12.50;99.90
23305;DHT22;11821;51.456;8.844;2023-05-24T21:33:37;12.50;99.90
23305;DHT22;11821;51.456;8.844;2023-05-24T21:36:10;12.50;99.90
23305;DHT22;11821;51.456;8.844;2023-05-24T21:38:36;12.50;99.90
23305;DHT22;11821;51.456;8.844;2023-05-24T21:41:03;12.40;99.90
23305;DHT22;11821;51.456;8.844;2023-05-24T21:43:30;12.40;99.90
23305;DHT22;11821;51.456;8.844;2023-05-24T21:48:23;12.30;99.90
23305;DHT22;11821;51.456;8.844;2023-05-24T21:50:49;12.30;99.90
23305;DHT22;11821;51.456;8.844;2023-05-24T21:53:15;12.20;99.90
23305;DHT22;11821;51.456;8.844;2023-05-24T21:55:42;12.20;99.90
23305;DHT22;11821;51.456;8.844;2023-05-24T21:58:08;12.20;99.90
23305;DHT22;11821;51.456;8.844;2023-05-24T22:00:34;12.10;99.90
23305;DHT22;11821;51.456;8.844;2023-05-24T22:03:01;12.10;99.90
23305;DHT22;11821;51.456;8.844;2023-05-24T22:05:28;12.10;99.90
23305;DHT22;11821;51.456;8.844;2023-05-24T22:12:50;12.00;99.90
